Ana Sayfa
METAR-TAF:

METAR-TAF

Havaalanları :

Craig, Colorado, Amerika Birleşik Devletleri

Enlem: 40-29-36N, Boylam: 107-31-25W, yükseklik: 1888 m

Güncel hava durumu gözlemi

Rapor saat 14:53 UTC de 43 dakika önce yapıldı.
Rüzgar batıdan 15 kt ve 30 kt'a kadar ani rüzgarlar
Sıcaklık -6°C
Nem 68%
Basınç 1017 hPa
Görüş mesafesi: 16.1 km
10000 ft yükseklikte çok bulutlu

METAR: KCAG 241453Z AUTO 27015G30KT 10SM OVC100 M06/M11 A3004 RMK AO2 PK WND 26030/1447 UPE1355 PRESRR SLP232 P0000 60004 T10561111 53020

Saat: 08:36 (15:36 UTC)


TAF: eksik

4.000'den fazla havaalanı için hava durumu gözlemleri ve tahminleri (METAR ve TAF raporları).

Kullanılabilir istasyonlar harita üzerinde sarı ve kırmızı noktalarla gösterilir.

İstasyonun adını görmek için fareyi noktanın üzerinde gezdirin.

Sonrasında hava gözlem ve tahminlerini görmek için tıklayın.

Haritayı değiştirmek için: yaklaştırmak için siyah artı işaretli yeşil düğmeye ve uzaklaştırmak için de eksi işaretli düğmeye hızla tıklayın; bitişik haritalar için yeşil okları kullanın.


METAR-TAF: